createdAt,value
2022-11-15T00:00:44.163Z,9.443692
2022-11-15T00:01:44.229Z,9.443727
2022-11-15T00:02:44.143Z,9.443732
2022-11-15T00:03:44.150Z,9.443741
2022-11-15T00:04:44.131Z,9.443788
2022-11-15T00:05:44.134Z,9.443742
2022-11-15T00:06:44.271Z,9.443608
2022-11-15T00:07:55.210Z,9.443558
2022-11-15T00:08:46.123Z,9.443650
2022-11-15T00:09:46.093Z,9.443681
2022-11-15T00:10:45.114Z,9.443667
2022-11-15T00:11:44.078Z,9.443691
2022-11-15T00:12:44.118Z,9.443637
2022-11-15T00:13:44.062Z,9.443672
2022-11-15T00:14:44.070Z,9.443666
2022-11-15T00:15:44.077Z,9.443648
2022-11-15T00:16:44.035Z,9.443634
2022-11-15T00:17:44.054Z,9.443635
2022-11-15T00:18:49.328Z,9.443601
2022-11-15T00:19:46.022Z,9.443631
2022-11-15T00:20:44.065Z,9.443691
2022-11-15T00:21:44.023Z,9.443731
2022-11-15T00:22:44.014Z,9.443743
2022-11-15T00:23:44.000Z,9.443715
2022-11-15T00:24:44.002Z,9.443709
2022-11-15T00:25:44.005Z,9.443686
2022-11-15T00:26:43.978Z,9.443678
2022-11-15T00:27:43.976Z,9.443719
2022-11-15T00:28:43.969Z,9.443716
2022-11-15T00:29:43.964Z,9.443715
2022-11-15T00:30:43.946Z,9.443721
2022-11-15T00:31:43.962Z,9.443732
2022-11-15T00:32:43.945Z,9.443707
2022-11-15T00:33:43.927Z,9.443697
2022-11-15T00:34:43.922Z,9.443687
2022-11-15T00:35:43.954Z,9.443656
2022-11-15T00:36:43.917Z,9.443664
2022-11-15T00:37:43.895Z,9.443661
2022-11-15T00:38:44.090Z,9.443669
2022-11-15T00:39:43.894Z,9.443672
2022-11-15T00:40:43.871Z,9.443682
2022-11-15T00:41:43.893Z,9.443660
2022-11-15T00:42:43.884Z,9.443645
2022-11-15T00:43:43.876Z,9.443660
2022-11-15T00:44:43.865Z,9.443734
2022-11-15T00:45:43.850Z,9.443716
2022-11-15T00:46:43.845Z,9.443702
2022-11-15T00:47:43.853Z,9.443712
2022-11-15T00:48:43.825Z,9.443680
2022-11-15T00:49:44.823Z,9.443593
2022-11-15T00:50:43.814Z,9.443628
2022-11-15T00:51:43.816Z,9.443600
2022-11-15T00:52:43.809Z,9.443647
2022-11-15T00:53:43.824Z,9.443709
2022-11-15T00:54:43.781Z,9.443647
2022-11-15T00:55:43.789Z,9.443662
2022-11-15T00:56:43.768Z,9.443693
2022-11-15T00:57:43.780Z,9.443733
2022-11-15T00:58:43.760Z,9.443687
2022-11-15T00:59:43.777Z,9.443684
2022-11-15T01:00:43.804Z,9.443645
2022-11-15T01:01:43.800Z,9.443751
2022-11-15T01:02:43.736Z,9.443719
2022-11-15T01:03:43.721Z,9.443709
2022-11-15T01:04:43.704Z,9.443684
2022-11-15T01:05:43.718Z,9.443632
2022-11-15T01:06:43.709Z,9.443639
2022-11-15T01:07:43.744Z,9.443682
2022-11-15T01:08:43.692Z,9.443674
2022-11-15T01:09:43.703Z,9.443693
2022-11-15T01:10:43.691Z,9.443671
2022-11-15T01:11:43.679Z,9.443683
2022-11-15T01:12:43.662Z,9.443727
2022-11-15T01:13:43.686Z,9.443734
2022-11-15T01:14:43.658Z,9.443692
2022-11-15T01:15:43.695Z,9.443640
2022-11-15T01:16:43.642Z,9.443625
2022-11-15T01:17:43.634Z,9.443667
2022-11-15T01:18:43.614Z,9.443683
2022-11-15T01:19:44.621Z,9.443720
2022-11-15T01:20:43.628Z,9.443678
2022-11-15T01:21:43.611Z,9.443743
2022-11-15T01:22:43.601Z,9.443749
2022-11-15T01:23:43.590Z,9.443692
2022-11-15T01:24:43.587Z,9.443732
2022-11-15T01:25:43.576Z,9.443688
2022-11-15T01:26:43.577Z,9.443585
2022-11-15T01:27:44.588Z,9.443644
2022-11-15T01:28:43.573Z,9.443692
2022-11-15T01:29:43.562Z,9.443706
2022-11-15T01:30:43.574Z,9.443665
2022-11-15T01:31:43.579Z,9.443716
2022-11-15T01:32:43.566Z,9.443720
2022-11-15T01:33:43.517Z,9.443727
2022-11-15T01:34:44.522Z,9.443743
2022-11-15T01:35:43.512Z,9.443733
2022-11-15T01:36:43.531Z,9.443677
2022-11-15T01:37:43.526Z,9.443724
2022-11-15T01:38:43.504Z,9.443722
2022-11-15T01:39:43.532Z,9.443698
2022-11-15T01:40:43.485Z,9.443737
2022-11-15T01:41:43.487Z,9.443739
2022-11-15T01:42:43.494Z,9.443679
2022-11-15T01:43:43.487Z,9.443703
2022-11-15T01:44:43.484Z,9.443563
2022-11-15T01:45:43.477Z,9.443549
2022-11-15T01:46:43.453Z,9.443679
2022-11-15T01:47:43.453Z,9.443706
2022-11-15T01:48:43.486Z,9.443723
2022-11-15T01:49:43.435Z,9.443749
2022-11-15T01:50:43.444Z,9.443789
2022-11-15T01:51:43.436Z,9.443715
2022-11-15T01:52:43.428Z,9.443740
2022-11-15T01:53:43.432Z,9.443764
2022-11-15T01:54:43.401Z,9.443748
2022-11-15T01:55:43.380Z,9.443748
2022-11-15T01:56:43.375Z,9.443810
2022-11-15T01:57:43.372Z,9.443755
2022-11-15T01:58:43.379Z,9.443766
2022-11-15T01:59:43.391Z,9.443734
2022-11-15T02:00:43.403Z,9.443620
2022-11-15T02:01:43.352Z,9.443734
2022-11-15T02:02:43.359Z,9.443710
2022-11-15T02:03:43.345Z,9.443638
2022-11-15T02:04:43.347Z,9.443791
2022-11-15T02:05:43.328Z,9.443747
2022-11-15T02:06:43.304Z,9.443777
2022-11-15T02:07:43.312Z,9.443764
2022-11-15T02:08:43.303Z,9.443783
2022-11-15T02:09:43.300Z,9.443787
2022-11-15T02:10:43.301Z,9.443752
2022-11-15T02:11:43.301Z,9.443748
2022-11-15T02:12:43.275Z,9.443736
2022-11-15T02:13:43.267Z,9.443625
2022-11-15T02:14:43.266Z,9.443696
2022-11-15T02:15:43.273Z,9.443737
2022-11-15T02:16:43.269Z,9.443712
2022-11-15T02:17:43.237Z,9.443732
2022-11-15T02:18:43.240Z,9.443603
2022-11-15T02:19:43.228Z,9.443787
2022-11-15T02:20:43.236Z,9.443719
2022-11-15T02:21:43.219Z,9.443637
2022-11-15T02:22:43.229Z,9.443684
2022-11-15T02:23:43.212Z,9.443510
2022-11-15T02:24:43.197Z,9.443702
2022-11-15T02:25:43.212Z,9.443651
2022-11-15T02:26:43.493Z,9.443692
2022-11-15T02:27:43.226Z,9.443729
2022-11-15T02:28:43.193Z,9.443787
2022-11-15T02:29:43.170Z,9.443577
2022-11-15T02:30:43.163Z,9.443621
2022-11-15T02:31:43.166Z,9.443691
2022-11-15T02:32:43.179Z,9.443637
2022-11-15T02:33:43.163Z,9.443580
2022-11-15T02:34:43.150Z,9.443682
2022-11-15T02:35:43.123Z,9.443738
2022-11-15T02:36:43.156Z,9.443789
2022-11-15T02:37:43.113Z,9.443720
2022-11-15T02:38:43.171Z,9.443742
2022-11-15T02:39:43.113Z,9.443657
2022-11-15T02:40:43.130Z,9.443597
2022-11-15T02:41:43.098Z,9.443534
2022-11-15T02:42:43.095Z,9.443661
2022-11-15T02:43:43.097Z,9.443692
2022-11-15T02:44:43.110Z,9.443707
2022-11-15T02:45:43.100Z,9.443687
2022-11-15T02:46:43.062Z,9.443733
2022-11-15T02:47:43.058Z,9.443729
2022-11-15T02:48:43.058Z,9.443735
2022-11-15T02:49:43.074Z,9.443747
2022-11-15T02:50:43.066Z,9.443734
2022-11-15T02:51:43.082Z,9.443738
2022-11-15T02:52:43.046Z,9.443731
2022-11-15T02:53:43.030Z,9.443749
2022-11-15T02:54:43.034Z,9.443813
2022-11-15T02:55:43.026Z,9.443712
2022-11-15T02:56:43.030Z,9.443678
2022-11-15T02:57:43.053Z,9.443657
2022-11-15T02:58:42.994Z,9.443728
2022-11-15T02:59:42.995Z,9.443731
2022-11-15T03:00:43.053Z,9.443682
2022-11-15T03:01:42.974Z,9.443630
2022-11-15T03:02:43.014Z,9.443683
2022-11-15T03:03:42.971Z,9.443653
2022-11-15T03:04:42.977Z,9.443656
2022-11-15T03:05:42.954Z,9.443607
2022-11-15T03:06:42.951Z,9.443686
2022-11-15T03:07:42.982Z,9.443793
2022-11-15T03:08:42.952Z,9.443745
2022-11-15T03:09:42.941Z,9.443726
2022-11-15T03:10:42.939Z,9.443689
2022-11-15T03:11:42.939Z,9.443711
2022-11-15T03:12:42.922Z,9.443736
2022-11-15T03:13:42.939Z,9.443731
2022-11-15T03:14:42.906Z,9.443727
2022-11-15T03:15:42.895Z,9.443680
2022-11-15T03:16:42.939Z,9.443696
2022-11-15T03:17:42.899Z,9.443763
2022-11-15T03:18:42.890Z,9.443799
2022-11-15T03:19:42.915Z,9.443705
2022-11-15T03:20:42.868Z,9.443774
2022-11-15T03:21:42.888Z,9.443805
2022-11-15T03:22:43.574Z,9.443805
2022-11-15T03:23:42.852Z,9.443767
2022-11-15T03:24:42.854Z,9.443646
2022-11-15T03:25:42.892Z,9.443741
2022-11-15T03:26:42.862Z,9.443737
2022-11-15T03:27:42.834Z,9.443797
2022-11-15T03:28:42.826Z,9.443843
2022-11-15T03:29:42.822Z,9.443854
2022-11-15T03:30:42.834Z,9.443848
2022-11-15T03:31:48.624Z,9.443870
2022-11-15T03:32:44.806Z,9.443892
2022-11-15T03:33:42.838Z,9.443791
2022-11-15T03:34:42.794Z,9.443767
2022-11-15T03:35:42.847Z,9.443726
2022-11-15T03:36:42.795Z,9.443788
2022-11-15T03:37:42.799Z,9.443753
2022-11-15T03:38:42.829Z,9.443764
2022-11-15T03:39:42.788Z,9.443724
2022-11-15T03:40:42.794Z,9.443766
2022-11-15T03:41:42.780Z,9.443738
2022-11-15T03:42:42.844Z,9.443816
2022-11-15T03:43:42.744Z,9.443749
2022-11-15T03:44:42.742Z,9.443732
2022-11-15T03:45:43.533Z,9.443734
2022-11-15T03:46:42.734Z,9.443746
2022-11-15T03:47:42.718Z,9.443716
2022-11-15T03:48:42.732Z,9.443719
2022-11-15T03:49:42.714Z,9.443821
2022-11-15T03:50:42.707Z,9.443715
2022-11-15T03:51:42.707Z,9.443716
2022-11-15T03:52:42.691Z,9.443729
2022-11-15T03:53:42.686Z,9.443678
2022-11-15T03:54:42.708Z,9.443726
2022-11-15T03:55:43.450Z,9.443690
2022-11-15T03:56:42.703Z,9.443719
2022-11-15T03:57:42.675Z,9.443724
2022-11-15T03:58:42.659Z,9.443643
2022-11-15T03:59:42.678Z,9.443623
2022-11-15T04:00:42.722Z,9.443686
2022-11-15T04:01:42.698Z,9.443693
2022-11-15T04:02:42.654Z,9.443662
2022-11-15T04:03:42.642Z,9.443676
2022-11-15T04:04:42.631Z,9.443743
2022-11-15T04:05:42.643Z,9.443755
2022-11-15T04:06:42.610Z,9.443731
2022-11-15T04:07:42.631Z,9.443699
2022-11-15T04:08:42.646Z,9.443720
2022-11-15T04:09:42.607Z,9.443727
2022-11-15T04:10:42.603Z,9.443744
2022-11-15T04:11:42.618Z,9.443748
2022-11-15T04:12:42.580Z,9.443732
2022-11-15T04:13:42.591Z,9.443708
2022-11-15T04:14:42.559Z,9.443748
2022-11-15T04:16:08.987Z,9.443686
2022-11-15T04:16:44.060Z,9.443717
2022-11-15T04:17:43.546Z,9.443746
2022-11-15T04:18:42.546Z,9.443731
2022-11-15T04:19:42.554Z,9.443716
2022-11-15T04:20:42.533Z,9.443737
2022-11-15T04:21:42.559Z,9.443727
2022-11-15T04:22:42.526Z,9.443727
2022-11-15T04:23:42.518Z,9.443675
2022-11-15T04:24:42.524Z,9.443863
2022-11-15T04:25:42.520Z,9.443798
2022-11-15T04:26:42.503Z,9.443831
2022-11-15T04:27:42.503Z,9.443804
2022-11-15T04:28:42.522Z,9.443761
2022-11-15T04:29:42.471Z,9.443768
2022-11-15T04:30:42.509Z,9.443752
2022-11-15T04:31:42.463Z,9.443783
2022-11-15T04:32:42.474Z,9.443788
2022-11-15T04:33:42.452Z,9.443747
2022-11-15T04:34:42.452Z,9.443769
2022-11-15T04:35:42.449Z,9.443772
2022-11-15T04:36:42.438Z,9.443789
2022-11-15T04:37:47.964Z,9.443780
2022-11-15T04:38:44.422Z,9.443751
2022-11-15T04:39:42.428Z,9.443734
2022-11-15T04:40:42.442Z,9.443759
2022-11-15T04:41:42.420Z,9.443781
2022-11-15T04:42:42.399Z,9.443789
2022-11-15T04:43:42.385Z,9.443713
2022-11-15T04:44:42.400Z,9.443742
2022-11-15T04:45:42.383Z,9.443749
2022-11-15T04:46:42.393Z,9.443787
2022-11-15T04:47:42.371Z,9.443747
2022-11-15T04:48:42.402Z,9.443753
2022-11-15T04:49:42.354Z,9.443755
2022-11-15T04:50:42.345Z,9.443761
2022-11-15T04:51:42.362Z,9.443791
2022-11-15T04:52:42.346Z,9.443777
2022-11-15T04:53:43.316Z,9.443779
2022-11-15T04:54:42.325Z,9.443746
2022-11-15T04:55:42.325Z,9.443752
2022-11-15T04:56:42.309Z,9.443748
2022-11-15T04:57:42.325Z,9.443774
2022-11-15T04:58:42.314Z,9.443771
2022-11-15T04:59:42.300Z,9.443788
2022-11-15T05:00:42.299Z,9.443771
2022-11-15T05:01:45.025Z,9.443688
2022-11-15T05:02:44.048Z,9.443734
2022-11-15T05:03:42.265Z,9.443739
2022-11-15T05:04:42.256Z,9.443711
2022-11-15T05:05:42.257Z,9.443802
2022-11-15T05:06:42.255Z,9.443730
2022-11-15T05:07:42.287Z,9.443712
2022-11-15T05:08:42.259Z,9.443712
2022-11-15T05:09:42.256Z,9.443677
2022-11-15T05:10:42.238Z,9.443755
2022-11-15T05:11:42.491Z,9.443789
2022-11-15T05:12:42.220Z,9.443843
2022-11-15T05:13:42.229Z,9.443854
2022-11-15T05:14:42.195Z,9.443725
2022-11-15T05:15:42.190Z,9.443718
2022-11-15T05:16:42.195Z,9.443768
2022-11-15T05:17:42.196Z,9.443774
2022-11-15T05:18:42.190Z,9.443769
2022-11-15T05:19:42.197Z,9.443620
2022-11-15T05:20:42.183Z,9.443505
2022-11-15T05:21:42.165Z,9.443604
2022-11-15T05:22:42.295Z,9.443655
2022-11-15T05:23:42.157Z,9.443686
2022-11-15T05:24:42.181Z,9.443727
2022-11-15T05:25:42.125Z,9.443732
2022-11-15T05:26:42.156Z,9.443683
2022-11-15T05:27:42.157Z,9.443712
2022-11-15T05:28:42.118Z,9.443687
2022-11-15T05:29:42.114Z,9.443702
2022-11-15T05:30:42.116Z,9.443773
2022-11-15T05:31:42.105Z,9.443624
2022-11-15T05:32:42.096Z,9.443601
2022-11-15T05:33:42.100Z,9.443703
2022-11-15T05:34:42.080Z,9.443733
2022-11-15T05:35:42.072Z,9.443771
2022-11-15T05:36:42.084Z,9.443746
2022-11-15T05:37:42.071Z,9.443735
2022-11-15T05:38:42.070Z,9.443748
2022-11-15T05:39:42.056Z,9.443736
2022-11-15T05:40:42.030Z,9.443681
2022-11-15T05:41:42.091Z,9.443759
2022-11-15T05:42:42.043Z,9.443755
2022-11-15T05:43:42.019Z,9.443733
2022-11-15T05:44:42.025Z,9.443798
2022-11-15T05:45:42.044Z,9.443729
2022-11-15T05:46:42.010Z,9.443706
2022-11-15T05:47:42.086Z,9.443722
2022-11-15T05:48:41.998Z,9.443699
2022-11-15T05:49:42.007Z,9.443695
2022-11-15T05:50:41.974Z,9.443686
2022-11-15T05:51:41.971Z,9.443699
2022-11-15T05:52:41.988Z,9.443697
2022-11-15T05:53:42.078Z,9.443692
2022-11-15T05:54:41.979Z,9.443697
2022-11-15T05:55:41.974Z,9.443678
2022-11-15T05:56:43.031Z,9.443720
2022-11-15T05:57:41.953Z,9.443727
2022-11-15T05:58:41.942Z,9.443714
2022-11-15T05:59:41.953Z,9.443703
2022-11-15T06:00:41.934Z,9.443733
2022-11-15T06:01:42.015Z,9.443742
2022-11-15T06:02:41.943Z,9.443673
2022-11-15T06:03:41.911Z,9.443651
2022-11-15T06:04:41.929Z,9.443662
2022-11-15T06:05:41.949Z,9.443719
2022-11-15T06:06:41.888Z,9.443737
2022-11-15T06:07:41.895Z,9.443741
2022-11-15T06:08:41.955Z,9.443713
2022-11-15T06:09:41.902Z,9.443716
2022-11-15T06:10:41.895Z,9.443710
2022-11-15T06:11:41.866Z,9.443694
2022-11-15T06:12:41.894Z,9.443657
2022-11-15T06:13:41.882Z,9.443707
2022-11-15T06:14:41.864Z,9.443687
2022-11-15T06:15:41.858Z,9.443660
2022-11-15T06:16:41.854Z,9.443705
2022-11-15T06:17:41.842Z,9.443686
2022-11-15T06:18:41.855Z,9.443641
2022-11-15T06:19:42.818Z,9.443636
2022-11-15T06:20:41.847Z,9.443677
2022-11-15T06:21:41.807Z,9.443631
2022-11-15T06:22:41.817Z,9.443646
2022-11-15T06:23:41.794Z,9.443679
2022-11-15T06:24:41.798Z,9.443727
2022-11-15T06:25:41.790Z,9.443761
2022-11-15T06:26:41.799Z,9.443642
2022-11-15T06:27:41.790Z,9.443680
2022-11-15T06:28:41.779Z,9.443748
2022-11-15T06:29:41.786Z,9.443779
2022-11-15T06:30:41.768Z,9.443747
2022-11-15T06:31:41.751Z,9.443702
2022-11-15T06:32:41.758Z,9.443688
2022-11-15T06:33:41.775Z,9.443746
2022-11-15T06:34:41.756Z,9.443765
2022-11-15T06:35:41.745Z,9.443751
2022-11-15T06:36:41.732Z,9.443714
2022-11-15T06:37:41.724Z,9.443691
2022-11-15T06:38:41.735Z,9.443675
2022-11-15T06:39:41.713Z,9.443739
2022-11-15T06:40:41.744Z,9.443734
2022-11-15T06:41:41.714Z,9.443692
2022-11-15T06:42:41.690Z,9.443738
2022-11-15T06:43:41.719Z,9.443730
2022-11-15T06:44:41.692Z,9.443704
2022-11-15T06:45:41.691Z,9.443656
2022-11-15T06:46:41.675Z,9.443688
2022-11-15T06:47:41.659Z,9.443757
2022-11-15T06:48:41.689Z,9.443752
2022-11-15T06:49:41.648Z,9.443736
2022-11-15T06:50:41.676Z,9.443727
2022-11-15T06:51:41.660Z,9.443710
2022-11-15T06:52:41.665Z,9.443686
2022-11-15T06:53:41.629Z,9.443707
2022-11-15T06:54:41.633Z,9.443694
2022-11-15T06:55:41.642Z,9.443693
2022-11-15T06:56:41.605Z,9.443645
2022-11-15T06:57:41.610Z,9.443641
2022-11-15T06:58:41.595Z,9.443623
2022-11-15T06:59:41.614Z,9.443649
2022-11-15T07:00:41.643Z,9.443659
2022-11-15T07:01:41.658Z,9.443685
2022-11-15T07:02:41.587Z,9.443733
2022-11-15T07:03:41.581Z,9.443640
2022-11-15T07:04:41.586Z,9.443542
2022-11-15T07:05:41.551Z,9.443565
2022-11-15T07:06:41.640Z,9.443606
2022-11-15T07:07:41.595Z,9.443665
2022-11-15T07:08:41.552Z,9.443705
2022-11-15T07:09:41.545Z,9.443645
2022-11-15T07:10:41.519Z,9.443670
2022-11-15T07:11:41.538Z,9.443644
2022-11-15T07:12:41.512Z,9.443661
2022-11-15T07:13:41.521Z,9.443706
2022-11-15T07:14:42.517Z,9.443784
2022-11-15T07:15:41.512Z,9.443789
2022-11-15T07:16:41.634Z,9.443746
2022-11-15T07:17:41.496Z,9.443718
2022-11-15T07:18:41.484Z,9.443677
2022-11-15T07:19:41.471Z,9.443642
2022-11-15T07:20:41.712Z,9.443716
2022-11-15T07:21:41.450Z,9.443632
2022-11-15T07:22:41.463Z,9.443530
2022-11-15T07:23:41.461Z,9.443480
2022-11-15T07:24:41.501Z,9.443575
2022-11-15T07:25:42.113Z,9.443637
2022-11-15T07:26:41.446Z,9.443630
2022-11-15T07:27:41.482Z,9.443703
2022-11-15T07:28:41.438Z,9.443688
2022-11-15T07:29:41.430Z,9.443653
2022-11-15T07:30:45.210Z,9.443732
2022-11-15T07:31:42.407Z,9.443513
2022-11-15T07:32:41.408Z,9.443519
2022-11-15T07:33:41.395Z,9.443740
2022-11-15T07:34:41.386Z,9.443762
2022-11-15T07:35:41.406Z,9.443900
2022-11-15T07:36:41.379Z,9.443626
2022-11-15T07:37:41.361Z,9.443614
2022-11-15T07:38:43.162Z,9.443626
2022-11-15T07:39:42.413Z,9.443776
2022-11-15T07:40:41.372Z,9.443837
2022-11-15T07:41:41.375Z,9.443749
2022-11-15T07:42:41.338Z,9.443778
2022-11-15T07:43:41.351Z,9.443770
2022-11-15T07:44:41.528Z,9.443761
2022-11-15T07:45:41.341Z,9.443714
2022-11-15T07:46:41.346Z,9.443640
2022-11-15T07:47:41.340Z,9.443657
2022-11-15T07:48:45.260Z,9.443682
2022-11-15T07:49:42.322Z,9.443780
2022-11-15T07:50:41.302Z,9.443650
2022-11-15T07:51:41.360Z,9.443578
2022-11-15T07:52:41.292Z,9.443586
2022-11-15T07:53:41.304Z,9.443706
2022-11-15T07:54:41.341Z,9.443833
2022-11-15T07:55:41.275Z,9.443796
2022-11-15T07:56:41.275Z,9.443724
2022-11-15T07:57:41.259Z,9.443744
2022-11-15T07:58:41.248Z,9.443789
2022-11-15T07:59:41.244Z,9.443748
2022-11-15T08:00:41.266Z,9.443790
2022-11-15T08:01:41.322Z,9.443649
2022-11-15T08:02:41.402Z,9.443675
2022-11-15T08:03:41.214Z,9.443846
2022-11-15T08:04:41.243Z,9.443709
2022-11-15T08:05:41.235Z,9.443736
2022-11-15T08:06:41.204Z,9.443644
2022-11-15T08:07:41.205Z,9.443508
2022-11-15T08:08:41.228Z,9.443510
2022-11-15T08:09:41.186Z,9.443519
2022-11-15T08:10:41.177Z,9.443371
2022-11-15T08:11:41.202Z,9.443544
2022-11-15T08:12:41.227Z,9.443397
2022-11-15T08:13:41.227Z,9.443377
2022-11-15T08:14:41.155Z,9.443463
2022-11-15T08:15:41.163Z,9.443368
2022-11-15T08:16:41.153Z,9.443419
2022-11-15T08:17:41.134Z,9.443511
2022-11-15T08:18:41.143Z,9.443593
2022-11-15T08:19:41.139Z,9.443481
2022-11-15T08:20:41.145Z,9.443316
2022-11-15T08:21:41.109Z,9.443262
2022-11-15T08:22:41.143Z,9.443389
2022-11-15T08:23:41.098Z,9.443377
2022-11-15T08:24:41.102Z,9.443393
2022-11-15T08:25:41.091Z,9.443416
2022-11-15T08:26:41.085Z,9.443389
2022-11-15T08:27:41.169Z,9.443619
2022-11-15T08:28:41.066Z,9.443612
2022-11-15T08:29:41.101Z,9.443727
2022-11-15T08:30:41.071Z,9.443460
2022-11-15T08:31:41.083Z,9.443413
2022-11-15T08:32:41.035Z,9.443197
2022-11-15T08:33:41.026Z,9.443275
2022-11-15T08:34:41.492Z,9.443704
2022-11-15T08:35:41.038Z,9.443703
2022-11-15T08:36:45.870Z,9.443704
2022-11-15T08:37:43.007Z,9.443719
2022-11-15T08:38:41.009Z,9.443691
2022-11-15T08:39:41.006Z,9.443672
2022-11-15T08:40:41.028Z,9.443770
2022-11-15T08:41:41.045Z,9.443665
2022-11-15T08:42:40.964Z,9.443681
2022-11-15T08:43:40.978Z,9.443757
2022-11-15T08:44:40.991Z,9.443856
2022-11-15T08:45:40.980Z,9.443815
2022-11-15T08:46:40.952Z,9.443703
2022-11-15T08:47:40.960Z,9.443729
2022-11-15T08:48:40.927Z,9.443822
2022-11-15T08:49:40.923Z,9.443748
2022-11-15T08:50:40.985Z,9.443671
2022-11-15T08:51:40.928Z,9.443758
2022-11-15T08:52:40.905Z,9.443758
2022-11-15T08:53:40.914Z,9.443805
2022-11-15T08:54:40.961Z,9.443797
2022-11-15T08:55:40.963Z,9.443776
2022-11-15T08:56:40.884Z,9.443711
2022-11-15T08:57:40.880Z,9.443549
2022-11-15T08:58:40.869Z,9.443721
2022-11-15T08:59:40.862Z,9.443572
2022-11-15T09:00:40.879Z,9.443642
2022-11-15T09:01:40.890Z,9.443741
2022-11-15T09:02:40.846Z,9.443780
2022-11-15T09:03:40.845Z,9.443710
2022-11-15T09:04:40.830Z,9.443640
2022-11-15T09:05:41.567Z,9.443723
2022-11-15T09:06:43.220Z,9.443681
2022-11-15T09:07:41.827Z,9.443684
2022-11-15T09:08:47.550Z,9.443761
2022-11-15T09:09:42.810Z,9.443697
2022-11-15T09:10:40.798Z,9.443788
2022-11-15T09:11:40.810Z,9.443674
2022-11-15T09:12:40.785Z,9.443641
2022-11-15T09:13:40.769Z,9.443544
2022-11-15T09:14:40.783Z,9.443809
2022-11-15T09:15:40.806Z,9.443808
2022-11-15T09:16:40.776Z,9.443768
2022-11-15T09:17:40.759Z,9.443645
2022-11-15T09:18:40.841Z,9.443631
2022-11-15T09:19:40.748Z,9.443552
2022-11-15T09:20:40.758Z,9.443635
2022-11-15T09:21:40.819Z,9.443721
2022-11-15T09:22:40.728Z,9.443747
2022-11-15T09:23:40.734Z,9.443726
2022-11-15T09:24:40.721Z,9.443710
2022-11-15T09:25:40.818Z,9.443723
2022-11-15T09:26:40.728Z,9.443604
2022-11-15T09:27:40.734Z,9.443680
2022-11-15T09:28:53.538Z,9.443602
2022-11-15T09:29:40.676Z,9.443675
2022-11-15T09:30:40.685Z,9.443522
2022-11-15T09:31:40.674Z,9.443613
2022-11-15T09:32:40.664Z,9.443474
2022-11-15T09:33:40.690Z,9.443577
2022-11-15T09:34:40.666Z,9.443663
2022-11-15T09:35:40.661Z,9.443739
2022-11-15T09:36:40.658Z,9.443552
2022-11-15T09:37:40.672Z,9.443546
2022-11-15T09:38:40.657Z,9.443553
2022-11-15T09:39:40.649Z,9.443731
2022-11-15T09:40:40.647Z,9.443799
2022-11-15T09:41:40.642Z,9.443771
2022-11-15T09:42:40.621Z,9.443746
2022-11-15T09:43:40.617Z,9.443727
2022-11-15T09:44:40.639Z,9.443838
2022-11-15T09:45:40.605Z,9.443810
2022-11-15T09:46:40.607Z,9.443761
2022-11-15T09:47:40.609Z,9.443555
2022-11-15T09:48:40.577Z,9.443666
2022-11-15T09:49:40.593Z,9.443624
2022-11-15T09:50:40.577Z,9.443514
2022-11-15T09:51:40.573Z,9.443521
2022-11-15T09:52:40.565Z,9.443438
2022-11-15T09:54:23.639Z,9.443464
2022-11-15T09:54:57.946Z,9.443463
2022-11-15T09:55:42.549Z,9.443565
2022-11-15T09:56:40.560Z,9.443501
2022-11-15T09:57:40.521Z,9.443562
2022-11-15T09:58:40.545Z,9.443603
2022-11-15T09:59:40.520Z,9.443616
2022-11-15T10:00:48.505Z,9.443638
2022-11-15T10:01:42.591Z,9.443654
2022-11-15T10:02:40.545Z,9.443686
2022-11-15T10:03:40.497Z,9.443699
2022-11-15T10:04:40.496Z,9.443638
2022-11-15T10:05:40.497Z,9.443686
2022-11-15T10:06:40.538Z,9.443734
2022-11-15T10:07:40.470Z,9.443707
2022-11-15T10:08:40.498Z,9.443713
2022-11-15T10:09:40.456Z,9.443657
2022-11-15T10:10:40.457Z,9.443628
2022-11-15T10:11:40.461Z,9.443571
2022-11-15T10:12:40.453Z,9.443563
2022-11-15T10:13:40.441Z,9.443581
2022-11-15T10:14:40.511Z,9.443591
2022-11-15T10:15:40.429Z,9.443580
2022-11-15T10:16:51.295Z,9.443491
2022-11-15T10:17:40.394Z,9.443455
2022-11-15T10:18:40.412Z,9.443479
2022-11-15T10:19:40.416Z,9.443625
2022-11-15T10:20:40.397Z,9.443655
2022-11-15T10:21:40.396Z,9.443683
2022-11-15T10:22:40.375Z,9.443743
2022-11-15T10:23:40.384Z,9.443675
2022-11-15T10:24:40.404Z,9.443654
2022-11-15T10:25:40.357Z,9.443727
2022-11-15T10:26:40.368Z,9.443809
2022-11-15T10:27:40.372Z,9.443762
2022-11-15T10:28:40.354Z,9.443752
2022-11-15T10:29:40.348Z,9.443692
2022-11-15T10:30:40.398Z,9.443645
2022-11-15T10:31:41.082Z,9.443637
2022-11-15T10:32:40.311Z,9.443561
2022-11-15T10:33:40.346Z,9.443601
2022-11-15T10:34:40.306Z,9.443664
2022-11-15T10:35:40.302Z,9.443487
2022-11-15T10:36:40.295Z,9.443520
2022-11-15T10:37:40.282Z,9.443494
2022-11-15T10:38:40.307Z,9.443499
2022-11-15T10:39:40.291Z,9.443617
2022-11-15T10:40:40.274Z,9.443628
2022-11-15T10:41:40.713Z,9.443673
2022-11-15T10:42:41.649Z,9.443682
2022-11-15T10:43:40.533Z,9.443707
2022-11-15T10:44:41.366Z,9.443637
2022-11-15T10:45:45.313Z,9.443631
2022-11-15T10:46:48.280Z,9.443621
2022-11-15T10:47:48.649Z,9.443708
2022-11-15T10:48:40.577Z,9.443671
2022-11-15T10:49:40.434Z,9.443711
2022-11-15T10:50:41.359Z,9.443690
2022-11-15T10:51:40.585Z,9.443726
2022-11-15T10:52:40.396Z,9.443659
2022-11-15T10:53:40.794Z,9.443717
2022-11-15T10:54:41.607Z,9.443755
2022-11-15T10:55:43.853Z,9.443740
2022-11-15T10:56:41.692Z,9.443726
2022-11-15T10:57:41.212Z,9.443733
2022-11-15T10:58:41.100Z,9.443722
2022-11-15T11:02:26.792Z,9.443659
2022-11-15T11:03:27.333Z,9.443755
2022-11-15T11:04:27.206Z,9.443734
2022-11-15T11:05:27.368Z,9.443758
2022-11-15T11:06:27.075Z,9.443739
2022-11-15T11:07:27.409Z,9.443738
2022-11-15T11:08:26.513Z,9.443778
2022-11-15T11:09:26.563Z,9.443747
2022-11-15T11:10:50.312Z,9.443758
2022-11-15T11:11:28.843Z,9.443773
2022-11-15T11:12:26.843Z,9.443787
2022-11-15T11:13:26.894Z,9.443830
2022-11-15T11:14:26.573Z,9.443727
2022-11-15T11:15:27.121Z,9.443799
2022-11-15T11:16:29.382Z,9.443789
2022-11-15T11:17:27.112Z,9.443867
2022-11-15T11:18:28.205Z,9.443767
2022-11-15T11:19:27.558Z,9.443713
2022-11-15T11:20:27.671Z,9.443695
2022-11-15T11:21:31.941Z,9.443701
2022-11-15T11:22:28.636Z,9.443762
2022-11-15T11:23:26.879Z,9.443827
2022-11-15T11:24:27.224Z,9.443798
2022-11-15T11:25:26.818Z,9.443846
2022-11-15T11:26:26.844Z,9.443825
2022-11-15T11:27:26.969Z,9.443816
2022-11-15T11:28:32.240Z,9.443862
2022-11-15T11:29:30.090Z,9.443916
2022-11-15T11:30:27.983Z,9.443825
2022-11-15T11:31:27.650Z,9.443789
2022-11-15T11:32:27.399Z,9.443766
2022-11-15T11:33:26.327Z,9.443809
2022-11-15T11:34:26.808Z,9.443736
2022-11-15T11:35:26.222Z,9.443665
2022-11-15T11:36:26.224Z,9.443680
2022-11-15T11:37:26.157Z,9.443598
2022-11-15T11:38:26.179Z,9.443669
2022-11-15T11:39:26.200Z,9.443770
2022-11-15T11:40:26.183Z,9.443864
2022-11-15T11:41:26.147Z,9.443696
2022-11-15T11:42:26.150Z,9.443694
2022-11-15T11:43:26.186Z,9.443681
2022-11-15T11:44:26.117Z,9.443664
2022-11-15T11:45:26.110Z,9.443713
2022-11-15T11:46:26.157Z,9.443728
2022-11-15T11:47:26.158Z,9.443768